sensor_id;sensor_type;location;lat;lon;timestamp;pressure;altitude;pressure_sealevel;temperature;humidity
4735;BME280;2381;50.676;12.612;2022-12-07T00:03:00;98347.31;;;1.19;100.00
4735;BME280;2381;50.676;12.612;2022-12-07T00:06:04;98346.69;;;1.16;100.00
4735;BME280;2381;50.676;12.612;2022-12-07T00:09:11;98350.84;;;1.18;100.00
4735;BME280;2381;50.676;12.612;2022-12-07T00:12:14;98345.75;;;1.17;100.00
4735;BME280;2381;50.676;12.612;2022-12-07T00:15:17;98340.47;;;1.18;100.00
4735;BME280;2381;50.676;12.612;2022-12-07T00:18:21;98341.50;;;1.16;100.00
4735;BME280;2381;50.676;12.612;2022-12-07T00:21:26;98347.31;;;1.19;100.00
4735;BME280;2381;50.676;12.612;2022-12-07T00:24:29;98339.63;;;1.18;100.00
4735;BME280;2381;50.676;12.612;2022-12-07T00:27:32;98339.63;;;1.18;100.00
4735;BME280;2381;50.676;12.612;2022-12-07T00:30:35;98340.75;;;1.14;100.00
4735;BME280;2381;50.676;12.612;2022-12-07T00:33:39;98343.53;;;1.11;100.00
4735;BME280;2381;50.676;12.612;2022-12-07T00:36:42;98334.81;;;1.12;100.00
4735;BME280;2381;50.676;12.612;2022-12-07T00:39:45;98329.53;;;1.13;100.00
4735;BME280;2381;50.676;12.612;2022-12-07T00:42:48;98326.13;;;1.13;100.00
4735;BME280;2381;50.676;12.612;2022-12-07T00:45:51;98331.31;;;1.13;100.00
4735;BME280;2381;50.676;12.612;2022-12-07T00:48:56;98325.28;;;1.12;100.00
4735;BME280;2381;50.676;12.612;2022-12-07T00:51:59;98316.78;;;1.10;100.00
4735;BME280;2381;50.676;12.612;2022-12-07T00:55:02;98316.16;;;1.07;100.00
4735;BME280;2381;50.676;12.612;2022-12-07T00:58:05;98313.47;;;1.08;100.00
4735;BME280;2381;50.676;12.612;2022-12-07T01:01:09;98318.75;;;1.07;100.00
4735;BME280;2381;50.676;12.612;2022-12-07T01:04:14;98325.06;;;1.03;100.00
4735;BME280;2381;50.676;12.612;2022-12-07T01:07:17;98325.88;;;1.03;100.00
4735;BME280;2381;50.676;12.612;2022-12-07T01:10:20;98324.63;;;0.96;100.00
4735;BME280;2381;50.676;12.612;2022-12-07T01:13:23;98331.03;;;0.91;100.00
4735;BME280;2381;50.676;12.612;2022-12-07T01:16:27;98333.53;;;0.92;100.00
4735;BME280;2381;50.676;12.612;2022-12-07T01:19:32;98351.97;;;0.88;100.00
4735;BME280;2381;50.676;12.612;2022-12-07T01:22:36;98350.31;;;0.87;100.00
4735;BME280;2381;50.676;12.612;2022-12-07T01:25:39;98343.03;;;0.79;100.00
4735;BME280;2381;50.676;12.612;2022-12-07T01:28:42;98352.97;;;0.73;100.00
4735;BME280;2381;50.676;12.612;2022-12-07T01:31:48;98357.06;;;0.63;100.00
4735;BME280;2381;50.676;12.612;2022-12-07T01:34:53;98367.00;;;0.56;100.00
4735;BME280;2381;50.676;12.612;2022-12-07T01:37:56;98377.97;;;0.60;100.00
4735;BME280;2381;50.676;12.612;2022-12-07T01:41:00;98390.41;;;0.55;100.00
4735;BME280;2381;50.676;12.612;2022-12-07T01:44:19;98387.53;;;0.59;100.00
4735;BME280;2381;50.676;12.612;2022-12-07T01:47:22;98385.00;;;0.58;100.00
4735;BME280;2381;50.676;12.612;2022-12-07T01:50:28;98380.41;;;0.49;100.00
4735;BME280;2381;50.676;12.612;2022-12-07T01:53:35;98387.81;;;0.55;100.00
4735;BME280;2381;50.676;12.612;2022-12-07T01:56:40;98387.06;;;0.53;100.00
4735;BME280;2381;50.676;12.612;2022-12-07T01:59:45;98387.44;;;0.47;100.00
4735;BME280;2381;50.676;12.612;2022-12-07T02:02:53;98380.97;;;0.54;100.00
4735;BME280;2381;50.676;12.612;2022-12-07T02:05:58;98376.50;;;0.56;100.00
4735;BME280;2381;50.676;12.612;2022-12-07T02:09:02;98374.19;;;0.51;100.00
4735;BME280;2381;50.676;12.612;2022-12-07T02:12:05;98380.84;;;0.55;100.00
4735;BME280;2381;50.676;12.612;2022-12-07T02:15:09;98375.94;;;0.51;100.00
4735;BME280;2381;50.676;12.612;2022-12-07T02:18:17;98369.66;;;0.55;100.00
4735;BME280;2381;50.676;12.612;2022-12-07T02:21:31;98367.84;;;0.43;100.00
4735;BME280;2381;50.676;12.612;2022-12-07T02:24:48;98368.56;;;0.45;100.00
4735;BME280;2381;50.676;12.612;2022-12-07T02:28:01;98369.03;;;0.51;100.00
4735;BME280;2381;50.676;12.612;2022-12-07T02:31:13;98359.34;;;0.27;100.00
4735;BME280;2381;50.676;12.612;2022-12-07T02:34:33;98354.44;;;0.36;100.00
4735;BME280;2381;50.676;12.612;2022-12-07T02:37:42;98346.88;;;0.19;100.00
4735;BME280;2381;50.676;12.612;2022-12-07T02:40:50;98351.56;;;0.27;100.00
4735;BME280;2381;50.676;12.612;2022-12-07T02:43:57;98348.81;;;0.16;100.00
4735;BME280;2381;50.676;12.612;2022-12-07T02:47:04;98346.03;;;0.19;100.00
4735;BME280;2381;50.676;12.612;2022-12-07T02:50:09;98344.00;;;0.24;100.00
4735;BME280;2381;50.676;12.612;2022-12-07T02:53:30;98344.72;;;0.26;100.00
4735;BME280;2381;50.676;12.612;2022-12-07T02:56:45;98332.34;;;0.17;100.00
4735;BME280;2381;50.676;12.612;2022-12-07T02:59:59;98338.09;;;0.08;100.00
4735;BME280;2381;50.676;12.612;2022-12-07T03:03:09;98333.97;;;0.05;100.00
4735;BME280;2381;50.676;12.612;2022-12-07T03:06:16;98333.75;;;0.08;100.00
4735;BME280;2381;50.676;12.612;2022-12-07T03:09:28;98331.91;;;0.10;100.00
4735;BME280;2381;50.676;12.612;2022-12-07T03:12:39;98332.91;;;0.08;100.00
4735;BME280;2381;50.676;12.612;2022-12-07T03:15:49;98318.06;;;-0.03;100.00
4735;BME280;2381;50.676;12.612;2022-12-07T03:19:01;98312.97;;;-0.04;100.00
4735;BME280;2381;50.676;12.612;2022-12-07T03:22:08;98305.75;;;0.01;100.00
4735;BME280;2381;50.676;12.612;2022-12-07T03:25:15;98309.06;;;0.03;100.00
4735;BME280;2381;50.676;12.612;2022-12-07T03:28:22;98304.09;;;0.00;100.00
4735;BME280;2381;50.676;12.612;2022-12-07T03:31:29;98292.53;;;0.05;100.00
4735;BME280;2381;50.676;12.612;2022-12-07T03:34:38;98288.25;;;0.04;100.00
4735;BME280;2381;50.676;12.612;2022-12-07T03:37:46;98280.97;;;0.11;100.00
4735;BME280;2381;50.676;12.612;2022-12-07T03:40:54;98271.50;;;0.10;100.00
4735;BME280;2381;50.676;12.612;2022-12-07T03:44:00;98274.38;;;0.19;100.00
4735;BME280;2381;50.676;12.612;2022-12-07T03:47:05;98277.59;;;0.23;100.00
4735;BME280;2381;50.676;12.612;2022-12-07T03:50:14;98280.19;;;0.23;100.00
4735;BME280;2381;50.676;12.612;2022-12-07T03:53:24;98277.03;;;0.18;100.00
4735;BME280;2381;50.676;12.612;2022-12-07T03:56:30;98267.53;;;0.18;100.00
4735;BME280;2381;50.676;12.612;2022-12-07T03:59:35;98265.47;;;0.23;100.00
4735;BME280;2381;50.676;12.612;2022-12-07T04:02:39;98256.44;;;0.16;100.00
4735;BME280;2381;50.676;12.612;2022-12-07T04:05:43;98241.94;;;0.14;100.00
4735;BME280;2381;50.676;12.612;2022-12-07T04:08:47;98233.22;;;0.15;100.00
4735;BME280;2381;50.676;12.612;2022-12-07T04:11:50;98240.41;;;0.24;100.00
4735;BME280;2381;50.676;12.612;2022-12-07T04:14:52;98224.09;;;0.09;100.00
4735;BME280;2381;50.676;12.612;2022-12-07T04:17:55;98223.59;;;0.17;100.00
4735;BME280;2381;50.676;12.612;2022-12-07T04:21:00;98213.59;;;0.25;100.00
4735;BME280;2381;50.676;12.612;2022-12-07T04:24:03;98204.03;;;0.13;100.00
4735;BME280;2381;50.676;12.612;2022-12-07T04:27:06;98200.94;;;0.20;100.00
4735;BME280;2381;50.676;12.612;2022-12-07T04:30:10;98190.78;;;0.17;100.00
4735;BME280;2381;50.676;12.612;2022-12-07T04:33:13;98189.44;;;0.24;100.00
4735;BME280;2381;50.676;12.612;2022-12-07T04:36:17;98174.94;;;0.22;100.00
4735;BME280;2381;50.676;12.612;2022-12-07T04:39:22;98183.31;;;0.25;100.00
4735;BME280;2381;50.676;12.612;2022-12-07T04:42:26;98170.59;;;0.22;100.00
4735;BME280;2381;50.676;12.612;2022-12-07T04:45:29;98168.53;;;0.27;100.00
4735;BME280;2381;50.676;12.612;2022-12-07T04:48:31;98161.28;;;0.32;100.00
4735;BME280;2381;50.676;12.612;2022-12-07T04:51:36;98162.13;;;0.33;100.00
4735;BME280;2381;50.676;12.612;2022-12-07T04:54:39;98157.38;;;0.39;100.00
4735;BME280;2381;50.676;12.612;2022-12-07T04:57:41;98146.81;;;0.42;100.00
4735;BME280;2381;50.676;12.612;2022-12-07T05:00:44;98151.91;;;0.44;100.00
4735;BME280;2381;50.676;12.612;2022-12-07T05:03:47;98149.94;;;0.47;100.00
4735;BME280;2381;50.676;12.612;2022-12-07T05:06:52;98157.59;;;0.49;100.00
4735;BME280;2381;50.676;12.612;2022-12-07T05:09:54;98145.50;;;0.49;100.00
4735;BME280;2381;50.676;12.612;2022-12-07T05:12:57;98151.47;;;0.50;100.00
4735;BME280;2381;50.676;12.612;2022-12-07T05:16:00;98146.00;;;0.54;100.00
4735;BME280;2381;50.676;12.612;2022-12-07T05:19:04;98143.53;;;0.53;100.00
4735;BME280;2381;50.676;12.612;2022-12-07T05:22:08;98139.16;;;0.53;100.00
4735;BME280;2381;50.676;12.612;2022-12-07T05:25:12;98128.00;;;0.53;100.00
4735;BME280;2381;50.676;12.612;2022-12-07T05:28:14;98112.03;;;0.46;100.00
4735;BME280;2381;50.676;12.612;2022-12-07T05:31:18;98111.91;;;0.48;100.00
4735;BME280;2381;50.676;12.612;2022-12-07T05:34:21;98101.75;;;0.45;100.00
4735;BME280;2381;50.676;12.612;2022-12-07T05:37:25;98085.50;;;0.43;100.00
4735;BME280;2381;50.676;12.612;2022-12-07T05:40:28;98078.31;;;0.34;100.00
4735;BME280;2381;50.676;12.612;2022-12-07T05:43:31;98071.19;;;0.37;100.00
4735;BME280;2381;50.676;12.612;2022-12-07T05:46:34;98060.81;;;0.37;100.00
4735;BME280;2381;50.676;12.612;2022-12-07T05:49:37;98059.97;;;0.37;100.00
4735;BME280;2381;50.676;12.612;2022-12-07T05:52:41;98057.72;;;0.45;100.00
4735;BME280;2381;50.676;12.612;2022-12-07T05:55:44;98069.41;;;0.38;100.00
4735;BME280;2381;50.676;12.612;2022-12-07T05:58:47;98057.41;;;0.37;100.00
4735;BME280;2381;50.676;12.612;2022-12-07T06:02:09;98064.94;;;0.40;100.00
4735;BME280;2381;50.676;12.612;2022-12-07T06:05:12;98055.53;;;0.39;100.00
4735;BME280;2381;50.676;12.612;2022-12-07T06:08:16;98062.66;;;0.35;100.00
4735;BME280;2381;50.676;12.612;2022-12-07T06:11:19;98060.19;;;0.34;100.00
4735;BME280;2381;50.676;12.612;2022-12-07T06:14:40;98047.97;;;0.36;100.00
4735;BME280;2381;50.676;12.612;2022-12-07T06:17:43;98056.28;;;0.41;100.00
4735;BME280;2381;50.676;12.612;2022-12-07T06:20:46;98063.28;;;0.39;100.00
4735;BME280;2381;50.676;12.612;2022-12-07T06:23:50;98067.66;;;0.38;100.00
4735;BME280;2381;50.676;12.612;2022-12-07T06:26:53;98066.63;;;0.41;100.00
4735;BME280;2381;50.676;12.612;2022-12-07T06:29:56;98064.78;;;0.43;100.00
4735;BME280;2381;50.676;12.612;2022-12-07T06:32:59;98069.72;;;0.46;100.00
4735;BME280;2381;50.676;12.612;2022-12-07T06:36:02;98070.47;;;0.48;100.00
4735;BME280;2381;50.676;12.612;2022-12-07T06:39:06;98081.53;;;0.50;100.00
4735;BME280;2381;50.676;12.612;2022-12-07T06:42:10;98081.44;;;0.51;100.00
4735;BME280;2381;50.676;12.612;2022-12-07T06:45:13;98088.38;;;0.51;100.00
4735;BME280;2381;50.676;12.612;2022-12-07T06:48:16;98089.22;;;0.51;100.00
4735;BME280;2381;50.676;12.612;2022-12-07T06:51:20;98085.59;;;0.54;100.00
4735;BME280;2381;50.676;12.612;2022-12-07T06:54:24;98076.91;;;0.55;100.00
4735;BME280;2381;50.676;12.612;2022-12-07T06:57:27;98086.94;;;0.59;100.00
4735;BME280;2381;50.676;12.612;2022-12-07T07:00:30;98086.81;;;0.61;100.00
4735;BME280;2381;50.676;12.612;2022-12-07T07:03:33;98101.97;;;0.67;100.00
4735;BME280;2381;50.676;12.612;2022-12-07T07:06:36;98104.34;;;0.70;100.00
4735;BME280;2381;50.676;12.612;2022-12-07T07:09:40;98102.69;;;0.69;100.00
4735;BME280;2381;50.676;12.612;2022-12-07T07:12:43;98107.06;;;0.68;100.00
4735;BME280;2381;50.676;12.612;2022-12-07T07:15:46;98107.69;;;0.72;100.00
4735;BME280;2381;50.676;12.612;2022-12-07T07:18:49;98101.75;;;0.70;100.00
4735;BME280;2381;50.676;12.612;2022-12-07T07:21:52;98111.00;;;0.74;100.00
4735;BME280;2381;50.676;12.612;2022-12-07T07:24:57;98113.47;;;0.75;100.00
4735;BME280;2381;50.676;12.612;2022-12-07T07:28:00;98109.84;;;0.78;100.00
4735;BME280;2381;50.676;12.612;2022-12-07T07:31:03;98116.81;;;0.77;100.00
4735;BME280;2381;50.676;12.612;2022-12-07T07:34:06;98116.81;;;0.77;100.00
4735;BME280;2381;50.676;12.612;2022-12-07T07:37:09;98121.16;;;0.77;100.00
4735;BME280;2381;50.676;12.612;2022-12-07T07:40:24;98112.44;;;0.78;100.00
4735;BME280;2381;50.676;12.612;2022-12-07T07:43:27;98122.81;;;0.78;100.00
4735;BME280;2381;50.676;12.612;2022-12-07T07:46:30;98129.78;;;0.77;100.00
4735;BME280;2381;50.676;12.612;2022-12-07T07:49:34;98123.84;;;0.75;100.00
4735;BME280;2381;50.676;12.612;2022-12-07T07:52:37;98130.69;;;0.76;100.00
4735;BME280;2381;50.676;12.612;2022-12-07T07:55:50;98130.81;;;0.75;100.00
4735;BME280;2381;50.676;12.612;2022-12-07T07:58:53;98131.75;;;0.74;100.00
4735;BME280;2381;50.676;12.612;2022-12-07T08:01:56;98134.22;;;0.75;100.00
4735;BME280;2381;50.676;12.612;2022-12-07T08:04:59;98134.03;;;0.78;100.00
4735;BME280;2381;50.676;12.612;2022-12-07T08:08:03;98137.25;;;0.82;100.00
4735;BME280;2381;50.676;12.612;2022-12-07T08:11:09;98137.03;;;0.85;100.00
4735;BME280;2381;50.676;12.612;2022-12-07T08:14:11;98146.38;;;0.87;100.00
4735;BME280;2381;50.676;12.612;2022-12-07T08:17:14;98155.50;;;0.93;100.00
4735;BME280;2381;50.676;12.612;2022-12-07T08:20:17;98154.56;;;0.94;100.00
4735;BME280;2381;50.676;12.612;2022-12-07T08:23:20;98142.31;;;0.96;100.00
4735;BME280;2381;50.676;12.612;2022-12-07T08:26:34;98152.69;;;0.96;100.00
4735;BME280;2381;50.676;12.612;2022-12-07T08:29:37;98157.66;;;0.99;100.00
4735;BME280;2381;50.676;12.612;2022-12-07T08:32:40;98155.19;;;0.97;100.00
4735;BME280;2381;50.676;12.612;2022-12-07T08:35:43;98163.06;;;0.96;100.00
4735;BME280;2381;50.676;12.612;2022-12-07T08:38:46;98163.88;;;0.96;100.00
4735;BME280;2381;50.676;12.612;2022-12-07T08:42:10;98168.88;;;0.99;100.00
4735;BME280;2381;50.676;12.612;2022-12-07T08:45:14;98170.53;;;1.00;100.00
4735;BME280;2381;50.676;12.612;2022-12-07T08:48:22;98179.44;;;1.09;100.00
4735;BME280;2381;50.676;12.612;2022-12-07T08:51:26;98186.91;;;1.13;100.00
4735;BME280;2381;50.676;12.612;2022-12-07T08:54:29;98182.56;;;1.14;100.00
4735;BME280;2381;50.676;12.612;2022-12-07T08:57:34;98182.44;;;1.15;100.00
4735;BME280;2381;50.676;12.612;2022-12-07T09:00:38;98178.81;;;1.18;100.00
4735;BME280;2381;50.676;12.612;2022-12-07T09:03:41;98186.28;;;1.22;100.00
4735;BME280;2381;50.676;12.612;2022-12-07T09:06:44;98184.72;;;1.20;100.00
4735;BME280;2381;50.676;12.612;2022-12-07T09:09:47;98187.13;;;1.23;100.00
4735;BME280;2381;50.676;12.612;2022-12-07T09:12:51;98193.97;;;1.24;100.00
4735;BME280;2381;50.676;12.612;2022-12-07T09:15:54;98187.31;;;1.32;100.00
4735;BME280;2381;50.676;12.612;2022-12-07T09:18:57;98199.03;;;1.38;100.00
4735;BME280;2381;50.676;12.612;2022-12-07T09:22:00;98196.22;;;1.41;100.00
4735;BME280;2381;50.676;12.612;2022-12-07T09:25:04;98209.72;;;1.46;100.00
4735;BME280;2381;50.676;12.612;2022-12-07T09:28:09;98215.94;;;1.56;100.00
4735;BME280;2381;50.676;12.612;2022-12-07T09:31:12;98218.09;;;1.62;100.00
4735;BME280;2381;50.676;12.612;2022-12-07T09:34:25;98216.53;;;1.72;100.00
4735;BME280;2381;50.676;12.612;2022-12-07T09:37:28;98220.69;;;1.74;100.00
4735;BME280;2381;50.676;12.612;2022-12-07T09:40:33;98213.75;;;1.75;100.00
4735;BME280;2381;50.676;12.612;2022-12-07T09:43:39;98224.84;;;1.77;100.00
4735;BME280;2381;50.676;12.612;2022-12-07T09:46:43;98229.00;;;1.79;100.00
4735;BME280;2381;50.676;12.612;2022-12-07T09:49:47;98232.94;;;1.85;100.00
4735;BME280;2381;50.676;12.612;2022-12-07T09:52:51;98244.84;;;1.87;100.00
4735;BME280;2381;50.676;12.612;2022-12-07T09:55:54;98243.50;;;1.94;100.00
4735;BME280;2381;50.676;12.612;2022-12-07T09:59:00;98241.06;;;2.04;100.00
4735;BME280;2381;50.676;12.612;2022-12-07T10:02:34;98253.88;;;2.07;100.00
4735;BME280;2381;50.676;12.612;2022-12-07T10:05:40;98257.06;;;2.10;100.00
4735;BME280;2381;50.676;12.612;2022-12-07T10:08:44;98259.22;;;2.16;100.00
4735;BME280;2381;50.676;12.612;2022-12-07T10:12:02;98259.63;;;2.23;100.00
4735;BME280;2381;50.676;12.612;2022-12-07T10:15:07;98264.81;;;2.23;100.00
4735;BME280;2381;50.676;12.612;2022-12-07T10:18:19;98269.81;;;2.26;100.00
4735;BME280;2381;50.676;12.612;2022-12-07T10:21:23;98262.50;;;2.31;100.00
4735;BME280;2381;50.676;12.612;2022-12-07T10:24:26;98266.06;;;2.30;100.00
4735;BME280;2381;50.676;12.612;2022-12-07T10:27:31;98277.06;;;2.33;100.00
4735;BME280;2381;50.676;12.612;2022-12-07T10:30:47;98285.97;;;2.42;100.00
4735;BME280;2381;50.676;12.612;2022-12-07T10:33:52;98278.44;;;2.49;100.00
4735;BME280;2381;50.676;12.612;2022-12-07T10:37:14;98278.94;;;2.54;100.00
4735;BME280;2381;50.676;12.612;2022-12-07T10:40:30;98291.75;;;2.57;100.00
4735;BME280;2381;50.676;12.612;2022-12-07T10:43:33;98295.47;;;2.53;100.00
4735;BME280;2381;50.676;12.612;2022-12-07T10:47:04;98291.94;;;2.54;100.00
4735;BME280;2381;50.676;12.612;2022-12-07T10:50:30;98296.00;;;2.58;100.00
4735;BME280;2381;50.676;12.612;2022-12-07T10:53:48;98305.13;;;2.64;100.00
4735;BME280;2381;50.676;12.612;2022-12-07T10:57:12;98299.59;;;2.68;100.00
4735;BME280;2381;50.676;12.612;2022-12-07T11:00:23;98307.88;;;2.73;100.00
4735;BME280;2381;50.676;12.612;2022-12-07T11:03:37;98300.22;;;2.72;100.00
4735;BME280;2381;50.676;12.612;2022-12-07T11:06:52;98294.88;;;2.73;100.00
4735;BME280;2381;50.676;12.612;2022-12-07T11:10:03;98283.53;;;2.74;100.00
4735;BME280;2381;50.676;12.612;2022-12-07T11:13:19;98278.22;;;2.76;100.00
4735;BME280;2381;50.676;12.612;2022-12-07T11:16:38;98271.28;;;2.76;100.00
4735;BME280;2381;50.676;12.612;2022-12-07T11:19:52;98263.09;;;2.81;100.00
4735;BME280;2381;50.676;12.612;2022-12-07T11:23:03;98254.72;;;2.77;100.00
4735;BME280;2381;50.676;12.612;2022-12-07T11:26:14;98251.91;;;2.80;100.00
4735;BME280;2381;50.676;12.612;2022-12-07T11:29:33;98238.03;;;2.80;100.00
4735;BME280;2381;50.676;12.612;2022-12-07T11:32:46;98230.25;;;2.80;100.00
4735;BME280;2381;50.676;12.612;2022-12-07T11:36:02;98209.34;;;2.81;100.00
4735;BME280;2381;50.676;12.612;2022-12-07T11:39:15;98201.28;;;2.84;100.00
4735;BME280;2381;50.676;12.612;2022-12-07T11:42:25;98167.50;;;2.84;100.00
4735;BME280;2381;50.676;12.612;2022-12-07T11:45:31;98148.47;;;2.84;100.00
4735;BME280;2381;50.676;12.612;2022-12-07T11:48:38;98123.28;;;2.84;100.00
4735;BME280;2381;50.676;12.612;2022-12-07T11:51:49;98102.47;;;2.84;100.00
4735;BME280;2381;50.676;12.612;2022-12-07T11:54:54;98077.41;;;2.83;100.00
4735;BME280;2381;50.676;12.612;2022-12-07T11:58:04;98058.41;;;2.83;100.00
4735;BME280;2381;50.676;12.612;2022-12-07T12:01:21;98025.53;;;2.82;100.00
4735;BME280;2381;50.676;12.612;2022-12-07T12:04:34;97998.69;;;2.81;100.00
4735;BME280;2381;50.676;12.612;2022-12-07T12:07:46;97963.25;;;2.80;100.00
4735;BME280;2381;50.676;12.612;2022-12-07T12:11:16;97947.38;;;2.83;100.00
4735;BME280;2381;50.676;12.612;2022-12-07T12:14:35;97912.78;;;2.83;100.00
4735;BME280;2381;50.676;12.612;2022-12-07T12:18:10;97874.56;;;2.83;100.00
4735;BME280;2381;50.676;12.612;2022-12-07T12:21:18;97842.03;;;2.89;100.00
4735;BME280;2381;50.676;12.612;2022-12-07T12:24:25;97806.34;;;2.91;100.00
4735;BME280;2381;50.676;12.612;2022-12-07T12:27:31;97776.28;;;2.98;100.00
4735;BME280;2381;50.676;12.612;2022-12-07T12:30:37;97749.91;;;3.02;100.00
4735;BME280;2381;50.676;12.612;2022-12-07T12:33:43;97730.69;;;3.14;100.00
4735;BME280;2381;50.676;12.612;2022-12-07T12:36:47;97709.09;;;3.23;100.00
4735;BME280;2381;50.676;12.612;2022-12-07T12:43:57;97654.84;;;3.98;100.00
4735;BME280;2381;50.676;12.612;2022-12-07T12:47:01;97622.53;;;4.19;100.00
4735;BME280;2381;50.676;12.612;2022-12-07T12:50:15;97557.09;;;4.03;100.00
4735;BME280;2381;50.676;12.612;2022-12-07T12:53:23;97503.34;;;3.83;100.00
4735;BME280;2381;50.676;12.612;2022-12-07T12:56:35;97440.84;;;3.64;100.00
4735;BME280;2381;50.676;12.612;2022-12-07T12:59:56;97387.00;;;3.65;100.00
4735;BME280;2381;50.676;12.612;2022-12-07T13:02:59;97355.06;;;3.53;100.00
4735;BME280;2381;50.676;12.612;2022-12-07T13:06:20;97315.50;;;3.59;100.00
4735;BME280;2381;50.676;12.612;2022-12-07T13:09:35;97293.56;;;3.52;100.00
4735;BME280;2381;50.676;12.612;2022-12-07T13:12:39;97273.28;;;3.56;100.00
4735;BME280;2381;50.676;12.612;2022-12-07T13:15:45;97256.84;;;3.55;100.00
4735;BME280;2381;50.676;12.612;2022-12-07T13:18:50;97241.53;;;3.43;100.00
4735;BME280;2381;50.676;12.612;2022-12-07T13:21:53;97229.75;;;3.48;100.00
4735;BME280;2381;50.676;12.612;2022-12-07T13:24:57;97222.63;;;3.50;100.00
4735;BME280;2381;50.676;12.612;2022-12-07T13:28:09;97216.31;;;3.43;100.00
4735;BME280;2381;50.676;12.612;2022-12-07T13:31:34;97204.41;;;3.41;100.00
4735;BME280;2381;50.676;12.612;2022-12-07T13:34:40;97198.53;;;3.39;100.00
4735;BME280;2381;50.676;12.612;2022-12-07T13:37:44;97202.13;;;3.28;100.00
4735;BME280;2381;50.676;12.612;2022-12-07T13:41:03;97187.09;;;3.22;100.00
4735;BME280;2381;50.676;12.612;2022-12-07T13:44:10;97179.28;;;3.22;100.00
4735;BME280;2381;50.676;12.612;2022-12-07T13:47:18;97181.19;;;3.20;100.00
4735;BME280;2381;50.676;12.612;2022-12-07T13:50:26;97180.78;;;3.15;100.00
4735;BME280;2381;50.676;12.612;2022-12-07T13:53:29;97181.91;;;3.13;100.00
4735;BME280;2381;50.676;12.612;2022-12-07T13:56:34;97166.44;;;3.11;100.00
4735;BME280;2381;50.676;12.612;2022-12-07T13:59:38;97166.03;;;3.06;100.00
4735;BME280;2381;50.676;12.612;2022-12-07T14:02:55;97160.69;;;3.08;100.00
4735;BME280;2381;50.676;12.612;2022-12-07T14:06:15;97164.53;;;3.04;100.00
4735;BME280;2381;50.676;12.612;2022-12-07T14:09:19;97164.38;;;3.05;100.00
4735;BME280;2381;50.676;12.612;2022-12-07T14:12:24;97160.72;;;2.98;100.00
4735;BME280;2381;50.676;12.612;2022-12-07T14:15:29;97151.84;;;2.91;100.00
4735;BME280;2381;50.676;12.612;2022-12-07T14:18:39;97153.75;;;2.89;100.00
4735;BME280;2381;50.676;12.612;2022-12-07T14:21:42;97159.38;;;2.85;100.00
4735;BME280;2381;50.676;12.612;2022-12-07T14:24:45;97168.28;;;2.82;100.00
4735;BME280;2381;50.676;12.612;2022-12-07T14:27:58;97163.06;;;2.82;100.00
4735;BME280;2381;50.676;12.612;2022-12-07T14:31:03;97171.56;;;2.75;100.00
4735;BME280;2381;50.676;12.612;2022-12-07T14:34:11;97175.25;;;2.72;100.00
4735;BME280;2381;50.676;12.612;2022-12-07T14:37:15;97172.66;;;2.72;100.00
4735;BME280;2381;50.676;12.612;2022-12-07T14:40:20;97174.28;;;2.73;100.00
4735;BME280;2381;50.676;12.612;2022-12-07T14:43:23;97184.44;;;2.76;100.00
4735;BME280;2381;50.676;12.612;2022-12-07T14:46:26;97190.44;;;2.77;100.00
4735;BME280;2381;50.676;12.612;2022-12-07T14:49:30;97200.03;;;2.76;100.00
4735;BME280;2381;50.676;12.612;2022-12-07T14:52:34;97207.13;;;2.74;100.00
4735;BME280;2381;50.676;12.612;2022-12-07T14:55:57;97210.84;;;2.72;100.00
4735;BME280;2381;50.676;12.612;2022-12-07T14:59:00;97216.47;;;2.67;100.00
4735;BME280;2381;50.676;12.612;2022-12-07T15:02:03;97235.63;;;2.66;100.00
4735;BME280;2381;50.676;12.612;2022-12-07T15:05:08;97246.25;;;2.63;100.00
4735;BME280;2381;50.676;12.612;2022-12-07T15:08:16;97252.81;;;2.58;100.00
4735;BME280;2381;50.676;12.612;2022-12-07T15:11:20;97257.34;;;2.56;100.00
4735;BME280;2381;50.676;12.612;2022-12-07T15:14:23;97261.03;;;2.53;100.00
4735;BME280;2381;50.676;12.612;2022-12-07T15:17:26;97264.03;;;2.49;100.00
4735;BME280;2381;50.676;12.612;2022-12-07T15:20:35;97270.19;;;2.48;100.00
4735;BME280;2381;50.676;12.612;2022-12-07T15:23:38;97277.19;;;2.47;100.00
4735;BME280;2381;50.676;12.612;2022-12-07T15:26:42;97283.34;;;2.47;100.00
4735;BME280;2381;50.676;12.612;2022-12-07T15:29:45;97285.09;;;2.46;100.00
4735;BME280;2381;50.676;12.612;2022-12-07T15:32:49;97293.00;;;2.44;100.00
4735;BME280;2381;50.676;12.612;2022-12-07T15:35:53;97285.09;;;2.37;100.00
4735;BME280;2381;50.676;12.612;2022-12-07T15:38:57;97284.13;;;2.38;100.00
4735;BME280;2381;50.676;12.612;2022-12-07T15:42:16;97295.47;;;2.37;100.00
4735;BME280;2381;50.676;12.612;2022-12-07T15:45:19;97295.03;;;2.32;100.00
4735;BME280;2381;50.676;12.612;2022-12-07T15:48:22;97302.56;;;2.35;100.00
4735;BME280;2381;50.676;12.612;2022-12-07T15:51:31;97304.22;;;2.36;100.00
4735;BME280;2381;50.676;12.612;2022-12-07T15:54:34;97314.63;;;2.36;100.00
4735;BME280;2381;50.676;12.612;2022-12-07T15:57:38;97302.56;;;2.35;100.00
4735;BME280;2381;50.676;12.612;2022-12-07T16:00:41;97305.88;;;2.37;100.00
4735;BME280;2381;50.676;12.612;2022-12-07T16:03:45;97302.56;;;2.35;100.00
4735;BME280;2381;50.676;12.612;2022-12-07T16:06:49;97303.28;;;2.37;100.00
4735;BME280;2381;50.676;12.612;2022-12-07T16:09:53;97306.13;;;2.34;100.00
4735;BME280;2381;50.676;12.612;2022-12-07T16:12:56;97302.72;;;2.33;100.00
4735;BME280;2381;50.676;12.612;2022-12-07T16:16:02;97304.63;;;2.31;100.00
4735;BME280;2381;50.676;12.612;2022-12-07T16:19:06;97296.00;;;2.31;100.00
4735;BME280;2381;50.676;12.612;2022-12-07T16:22:10;97308.31;;;2.29;100.00
4735;BME280;2381;50.676;12.612;2022-12-07T16:25:13;97294.34;;;2.30;100.00
4735;BME280;2381;50.676;12.612;2022-12-07T16:28:16;97292.72;;;2.29;100.00
4735;BME280;2381;50.676;12.612;2022-12-07T16:31:21;97290.00;;;2.30;100.00
4735;BME280;2381;50.676;12.612;2022-12-07T16:34:24;97288.31;;;2.29;100.00
4735;BME280;2381;50.676;12.612;2022-12-07T16:37:29;97290.25;;;2.27;100.00
4735;BME280;2381;50.676;12.612;2022-12-07T16:40:32;97291.06;;;2.28;100.00
4735;BME280;2381;50.676;12.612;2022-12-07T16:43:35;97290.41;;;2.26;100.00
4735;BME280;2381;50.676;12.612;2022-12-07T16:46:39;97297.34;;;2.25;100.00